sensor_id;sensor_type;location;lat;lon;timestamp;P1;durP1;ratioP1;P2;durP2;ratioP2
68803;SDS011;55787;52.678;13.314;2023-06-26T00:01:03;13.60;;;7.25;;
68803;SDS011;55787;52.678;13.314;2023-06-26T00:03:32;15.18;;;7.63;;
68803;SDS011;55787;52.678;13.314;2023-06-26T00:05:59;14.30;;;7.97;;
68803;SDS011;55787;52.678;13.314;2023-06-26T00:08:27;14.43;;;7.30;;
68803;SDS011;55787;52.678;13.314;2023-06-26T00:10:54;14.10;;;7.70;;
68803;SDS011;55787;52.678;13.314;2023-06-26T00:13:22;12.75;;;7.07;;
68803;SDS011;55787;52.678;13.314;2023-06-26T00:15:50;14.63;;;7.53;;
68803;SDS011;55787;52.678;13.314;2023-06-26T00:18:18;13.63;;;7.00;;
68803;SDS011;55787;52.678;13.314;2023-06-26T00:20:44;14.15;;;7.60;;
68803;SDS011;55787;52.678;13.314;2023-06-26T00:23:12;13.87;;;7.50;;
68803;SDS011;55787;52.678;13.314;2023-06-26T00:25:39;13.63;;;6.93;;
68803;SDS011;55787;52.678;13.314;2023-06-26T00:28:06;14.10;;;7.32;;
68803;SDS011;55787;52.678;13.314;2023-06-26T00:30:33;12.98;;;6.90;;
68803;SDS011;55787;52.678;13.314;2023-06-26T00:32:59;13.13;;;7.35;;
68803;SDS011;55787;52.678;13.314;2023-06-26T00:35:26;13.43;;;7.20;;
68803;SDS011;55787;52.678;13.314;2023-06-26T00:37:53;14.77;;;7.82;;
68803;SDS011;55787;52.678;13.314;2023-06-26T00:40:20;13.70;;;7.35;;
68803;SDS011;55787;52.678;13.314;2023-06-26T00:42:47;13.35;;;7.32;;
68803;SDS011;55787;52.678;13.314;2023-06-26T00:45:13;13.38;;;7.63;;
68803;SDS011;55787;52.678;13.314;2023-06-26T00:47:40;14.33;;;7.50;;
68803;SDS011;55787;52.678;13.314;2023-06-26T00:50:07;14.15;;;7.65;;
68803;SDS011;55787;52.678;13.314;2023-06-26T00:52:35;14.15;;;7.78;;
68803;SDS011;55787;52.678;13.314;2023-06-26T00:55:02;15.18;;;8.05;;
68803;SDS011;55787;52.678;13.314;2023-06-26T00:57:30;13.13;;;7.18;;
68803;SDS011;55787;52.678;13.314;2023-06-26T00:59:57;14.23;;;7.57;;
68803;SDS011;55787;52.678;13.314;2023-06-26T01:02:24;14.15;;;7.40;;
68803;SDS011;55787;52.678;13.314;2023-06-26T01:04:53;13.52;;;7.28;;
68803;SDS011;55787;52.678;13.314;2023-06-26T01:07:20;14.98;;;7.43;;
68803;SDS011;55787;52.678;13.314;2023-06-26T01:09:48;16.23;;;7.70;;
68803;SDS011;55787;52.678;13.314;2023-06-26T01:12:16;14.07;;;7.17;;
68803;SDS011;55787;52.678;13.314;2023-06-26T01:14:43;14.90;;;7.97;;
68803;SDS011;55787;52.678;13.314;2023-06-26T01:17:09;14.45;;;7.72;;
68803;SDS011;55787;52.678;13.314;2023-06-26T01:19:42;13.93;;;7.38;;
68803;SDS011;55787;52.678;13.314;2023-06-26T01:22:16;16.40;;;7.95;;
68803;SDS011;55787;52.678;13.314;2023-06-26T01:25:35;13.20;;;7.07;;
68803;SDS011;55787;52.678;13.314;2023-06-26T01:28:16;14.73;;;7.40;;
68803;SDS011;55787;52.678;13.314;2023-06-26T01:30:45;14.57;;;7.68;;
68803;SDS011;55787;52.678;13.314;2023-06-26T01:33:13;14.52;;;7.68;;
68803;SDS011;55787;52.678;13.314;2023-06-26T01:35:41;14.18;;;7.72;;
68803;SDS011;55787;52.678;13.314;2023-06-26T01:38:12;15.00;;;8.10;;
68803;SDS011;55787;52.678;13.314;2023-06-26T01:40:40;14.98;;;8.00;;
68803;SDS011;55787;52.678;13.314;2023-06-26T01:43:08;14.95;;;7.97;;
68803;SDS011;55787;52.678;13.314;2023-06-26T01:45:45;14.45;;;7.35;;
68803;SDS011;55787;52.678;13.314;2023-06-26T01:48:16;14.10;;;7.45;;
68803;SDS011;55787;52.678;13.314;2023-06-26T01:50:50;14.33;;;7.33;;
68803;SDS011;55787;52.678;13.314;2023-06-26T01:53:19;14.38;;;7.65;;
68803;SDS011;55787;52.678;13.314;2023-06-26T01:55:51;15.02;;;8.20;;
68803;SDS011;55787;52.678;13.314;2023-06-26T01:58:22;14.88;;;7.68;;
68803;SDS011;55787;52.678;13.314;2023-06-26T02:00:50;17.60;;;7.78;;
68803;SDS011;55787;52.678;13.314;2023-06-26T02:03:17;15.93;;;8.00;;
68803;SDS011;55787;52.678;13.314;2023-06-26T02:05:44;14.40;;;7.57;;
68803;SDS011;55787;52.678;13.314;2023-06-26T02:08:13;16.95;;;7.80;;
68803;SDS011;55787;52.678;13.314;2023-06-26T02:10:40;15.05;;;7.75;;
68803;SDS011;55787;52.678;13.314;2023-06-26T02:13:09;14.43;;;7.47;;
68803;SDS011;55787;52.678;13.314;2023-06-26T02:15:36;14.03;;;7.43;;
68803;SDS011;55787;52.678;13.314;2023-06-26T02:18:06;14.35;;;7.47;;
68803;SDS011;55787;52.678;13.314;2023-06-26T02:20:34;13.73;;;7.50;;
68803;SDS011;55787;52.678;13.314;2023-06-26T02:23:04;15.18;;;7.68;;
68803;SDS011;55787;52.678;13.314;2023-06-26T02:25:31;14.18;;;8.05;;
68803;SDS011;55787;52.678;13.314;2023-06-26T02:27:57;14.00;;;7.57;;
68803;SDS011;55787;52.678;13.314;2023-06-26T02:30:24;14.05;;;7.60;;
68803;SDS011;55787;52.678;13.314;2023-06-26T02:32:51;13.85;;;7.57;;
68803;SDS011;55787;52.678;13.314;2023-06-26T02:35:17;15.73;;;8.85;;
68803;SDS011;55787;52.678;13.314;2023-06-26T02:37:44;16.50;;;8.38;;
68803;SDS011;55787;52.678;13.314;2023-06-26T02:40:11;14.50;;;8.00;;
68803;SDS011;55787;52.678;13.314;2023-06-26T02:42:39;14.02;;;7.60;;
68803;SDS011;55787;52.678;13.314;2023-06-26T02:45:05;14.98;;;7.88;;
68803;SDS011;55787;52.678;13.314;2023-06-26T02:47:32;15.18;;;8.18;;
68803;SDS011;55787;52.678;13.314;2023-06-26T02:49:59;15.50;;;7.82;;
68803;SDS011;55787;52.678;13.314;2023-06-26T02:52:26;16.23;;;8.17;;
68803;SDS011;55787;52.678;13.314;2023-06-26T02:54:55;17.83;;;8.50;;
68803;SDS011;55787;52.678;13.314;2023-06-26T02:57:21;14.48;;;7.65;;
68803;SDS011;55787;52.678;13.314;2023-06-26T02:59:48;15.40;;;8.05;;
68803;SDS011;55787;52.678;13.314;2023-06-26T03:02:15;15.65;;;8.55;;
68803;SDS011;55787;52.678;13.314;2023-06-26T03:04:42;14.87;;;8.10;;
68803;SDS011;55787;52.678;13.314;2023-06-26T03:07:09;15.07;;;8.13;;
68803;SDS011;55787;52.678;13.314;2023-06-26T03:09:36;17.05;;;9.02;;
68803;SDS011;55787;52.678;13.314;2023-06-26T03:12:03;18.13;;;7.72;;
68803;SDS011;55787;52.678;13.314;2023-06-26T03:14:30;16.23;;;8.32;;
68803;SDS011;55787;52.678;13.314;2023-06-26T03:16:58;14.93;;;8.07;;
68803;SDS011;55787;52.678;13.314;2023-06-26T03:19:30;15.43;;;8.70;;
68803;SDS011;55787;52.678;13.314;2023-06-26T03:21:57;15.60;;;8.80;;
68803;SDS011;55787;52.678;13.314;2023-06-26T03:24:23;15.38;;;8.77;;
68803;SDS011;55787;52.678;13.314;2023-06-26T03:26:50;17.25;;;9.13;;
68803;SDS011;55787;52.678;13.314;2023-06-26T03:29:17;17.37;;;9.60;;
68803;SDS011;55787;52.678;13.314;2023-06-26T03:31:44;15.80;;;9.43;;
68803;SDS011;55787;52.678;13.314;2023-06-26T03:34:11;17.52;;;8.82;;
68803;SDS011;55787;52.678;13.314;2023-06-26T03:36:37;18.90;;;8.93;;
68803;SDS011;55787;52.678;13.314;2023-06-26T03:39:04;15.27;;;8.88;;
68803;SDS011;55787;52.678;13.314;2023-06-26T03:41:31;16.60;;;9.43;;
68803;SDS011;55787;52.678;13.314;2023-06-26T03:43:57;17.45;;;8.95;;
68803;SDS011;55787;52.678;13.314;2023-06-26T03:46:26;18.60;;;9.32;;
68803;SDS011;55787;52.678;13.314;2023-06-26T03:48:53;18.25;;;9.45;;
68803;SDS011;55787;52.678;13.314;2023-06-26T03:51:20;16.67;;;8.98;;
68803;SDS011;55787;52.678;13.314;2023-06-26T03:53:46;16.07;;;8.90;;
68803;SDS011;55787;52.678;13.314;2023-06-26T03:56:13;18.65;;;9.68;;
68803;SDS011;55787;52.678;13.314;2023-06-26T03:58:40;17.27;;;9.57;;
68803;SDS011;55787;52.678;13.314;2023-06-26T04:01:07;18.10;;;9.35;;
68803;SDS011;55787;52.678;13.314;2023-06-26T04:03:33;18.13;;;10.10;;
68803;SDS011;55787;52.678;13.314;2023-06-26T04:06:00;16.40;;;9.60;;
68803;SDS011;55787;52.678;13.314;2023-06-26T04:08:27;19.10;;;10.68;;
68803;SDS011;55787;52.678;13.314;2023-06-26T04:10:53;19.23;;;10.68;;
68803;SDS011;55787;52.678;13.314;2023-06-26T04:13:21;18.42;;;10.38;;
68803;SDS011;55787;52.678;13.314;2023-06-26T04:15:48;21.20;;;10.50;;
68803;SDS011;55787;52.678;13.314;2023-06-26T04:18:14;18.43;;;9.67;;
68803;SDS011;55787;52.678;13.314;2023-06-26T04:21:03;17.30;;;10.15;;
68803;SDS011;55787;52.678;13.314;2023-06-26T04:23:32;18.33;;;9.75;;
68803;SDS011;55787;52.678;13.314;2023-06-26T04:25:59;18.63;;;10.50;;
68803;SDS011;55787;52.678;13.314;2023-06-26T04:28:25;18.45;;;10.35;;
68803;SDS011;55787;52.678;13.314;2023-06-26T04:30:52;18.93;;;10.20;;
68803;SDS011;55787;52.678;13.314;2023-06-26T04:33:19;19.50;;;10.75;;
68803;SDS011;55787;52.678;13.314;2023-06-26T04:35:46;16.73;;;10.15;;
68803;SDS011;55787;52.678;13.314;2023-06-26T04:38:15;16.52;;;9.90;;
68803;SDS011;55787;52.678;13.314;2023-06-26T04:40:42;18.70;;;10.80;;
68803;SDS011;55787;52.678;13.314;2023-06-26T04:43:08;18.97;;;10.17;;
68803;SDS011;55787;52.678;13.314;2023-06-26T04:45:35;18.85;;;10.15;;
68803;SDS011;55787;52.678;13.314;2023-06-26T04:48:02;17.50;;;10.48;;
68803;SDS011;55787;52.678;13.314;2023-06-26T04:50:30;16.88;;;9.73;;
68803;SDS011;55787;52.678;13.314;2023-06-26T04:52:57;21.40;;;10.68;;
68803;SDS011;55787;52.678;13.314;2023-06-26T04:55:24;16.90;;;9.93;;
68803;SDS011;55787;52.678;13.314;2023-06-26T04:57:51;17.67;;;10.20;;
68803;SDS011;55787;52.678;13.314;2023-06-26T05:00:18;21.20;;;10.57;;
68803;SDS011;55787;52.678;13.314;2023-06-26T05:02:45;17.15;;;10.05;;
68803;SDS011;55787;52.678;13.314;2023-06-26T05:05:12;17.67;;;10.18;;
68803;SDS011;55787;52.678;13.314;2023-06-26T05:07:40;16.50;;;9.57;;
68803;SDS011;55787;52.678;13.314;2023-06-26T05:10:07;19.23;;;9.25;;
68803;SDS011;55787;52.678;13.314;2023-06-26T05:12:34;19.25;;;10.35;;
68803;SDS011;55787;52.678;13.314;2023-06-26T05:15:01;17.08;;;9.77;;
68803;SDS011;55787;52.678;13.314;2023-06-26T05:17:29;16.23;;;9.73;;
68803;SDS011;55787;52.678;13.314;2023-06-26T05:19:55;18.50;;;9.20;;
68803;SDS011;55787;52.678;13.314;2023-06-26T05:22:22;17.05;;;9.95;;
68803;SDS011;55787;52.678;13.314;2023-06-26T05:24:49;15.55;;;9.23;;
68803;SDS011;55787;52.678;13.314;2023-06-26T05:27:19;15.32;;;8.80;;
68803;SDS011;55787;52.678;13.314;2023-06-26T05:29:48;16.92;;;8.90;;
68803;SDS011;55787;52.678;13.314;2023-06-26T05:32:16;14.63;;;8.73;;
68803;SDS011;55787;52.678;13.314;2023-06-26T05:34:47;15.57;;;9.02;;
68803;SDS011;55787;52.678;13.314;2023-06-26T05:37:19;15.18;;;8.73;;
68803;SDS011;55787;52.678;13.314;2023-06-26T05:39:47;16.38;;;8.45;;
68803;SDS011;55787;52.678;13.314;2023-06-26T05:42:14;14.48;;;8.23;;
68803;SDS011;55787;52.678;13.314;2023-06-26T05:44:41;14.03;;;8.07;;
68803;SDS011;55787;52.678;13.314;2023-06-26T05:47:08;13.38;;;7.70;;
68803;SDS011;55787;52.678;13.314;2023-06-26T05:49:35;14.02;;;7.93;;
68803;SDS011;55787;52.678;13.314;2023-06-26T05:52:02;13.85;;;7.90;;
68803;SDS011;55787;52.678;13.314;2023-06-26T05:54:29;14.77;;;8.43;;
68803;SDS011;55787;52.678;13.314;2023-06-26T05:56:57;14.43;;;8.30;;
68803;SDS011;55787;52.678;13.314;2023-06-26T05:59:27;14.75;;;8.45;;
68803;SDS011;55787;52.678;13.314;2023-06-26T06:01:54;15.02;;;8.10;;
68803;SDS011;55787;52.678;13.314;2023-06-26T06:04:21;14.52;;;7.68;;
68803;SDS011;55787;52.678;13.314;2023-06-26T06:06:48;15.20;;;8.73;;
68803;SDS011;55787;52.678;13.314;2023-06-26T06:09:15;14.13;;;8.10;;
68803;SDS011;55787;52.678;13.314;2023-06-26T06:11:42;15.70;;;8.10;;
68803;SDS011;55787;52.678;13.314;2023-06-26T06:14:08;13.82;;;8.25;;
68803;SDS011;55787;52.678;13.314;2023-06-26T06:16:35;13.05;;;7.47;;
68803;SDS011;55787;52.678;13.314;2023-06-26T06:19:02;12.95;;;7.53;;
68803;SDS011;55787;52.678;13.314;2023-06-26T06:21:29;12.87;;;7.27;;
68803;SDS011;55787;52.678;13.314;2023-06-26T06:23:56;12.32;;;7.10;;
68803;SDS011;55787;52.678;13.314;2023-06-26T06:26:23;11.88;;;7.07;;
68803;SDS011;55787;52.678;13.314;2023-06-26T06:28:49;11.80;;;7.32;;
68803;SDS011;55787;52.678;13.314;2023-06-26T06:31:16;11.32;;;7.20;;
68803;SDS011;55787;52.678;13.314;2023-06-26T06:33:43;11.50;;;6.80;;
68803;SDS011;55787;52.678;13.314;2023-06-26T06:36:09;12.27;;;6.63;;
68803;SDS011;55787;52.678;13.314;2023-06-26T06:38:36;13.88;;;6.80;;
68803;SDS011;55787;52.678;13.314;2023-06-26T06:41:03;10.57;;;5.65;;
68803;SDS011;55787;52.678;13.314;2023-06-26T06:43:29;9.40;;;5.85;;
68803;SDS011;55787;52.678;13.314;2023-06-26T06:45:56;9.90;;;5.47;;
68803;SDS011;55787;52.678;13.314;2023-06-26T06:48:23;8.90;;;4.90;;
68803;SDS011;55787;52.678;13.314;2023-06-26T06:50:49;9.82;;;5.90;;
68803;SDS011;55787;52.678;13.314;2023-06-26T06:53:17;9.00;;;5.40;;
68803;SDS011;55787;52.678;13.314;2023-06-26T06:55:46;9.48;;;5.70;;
68803;SDS011;55787;52.678;13.314;2023-06-26T06:58:13;10.10;;;5.87;;
68803;SDS011;55787;52.678;13.314;2023-06-26T07:00:40;9.90;;;5.70;;
68803;SDS011;55787;52.678;13.314;2023-06-26T07:03:07;9.73;;;5.90;;
68803;SDS011;55787;52.678;13.314;2023-06-26T07:05:34;9.90;;;5.70;;
68803;SDS011;55787;52.678;13.314;2023-06-26T07:08:00;8.98;;;5.70;;
68803;SDS011;55787;52.678;13.314;2023-06-26T07:10:28;9.93;;;5.73;;
68803;SDS011;55787;52.678;13.314;2023-06-26T07:12:55;9.77;;;5.80;;
68803;SDS011;55787;52.678;13.314;2023-06-26T07:15:21;9.20;;;5.68;;
68803;SDS011;55787;52.678;13.314;2023-06-26T07:17:49;9.48;;;5.45;;
68803;SDS011;55787;52.678;13.314;2023-06-26T07:20:16;9.93;;;5.90;;
68803;SDS011;55787;52.678;13.314;2023-06-26T07:22:43;10.40;;;6.10;;
68803;SDS011;55787;52.678;13.314;2023-06-26T07:25:11;9.25;;;6.18;;
68803;SDS011;55787;52.678;13.314;2023-06-26T07:27:40;11.70;;;5.90;;
68803;SDS011;55787;52.678;13.314;2023-06-26T07:30:07;9.45;;;6.05;;
68803;SDS011;55787;52.678;13.314;2023-06-26T07:32:35;9.05;;;6.20;;
68803;SDS011;55787;52.678;13.314;2023-06-26T07:35:03;9.13;;;5.80;;
68803;SDS011;55787;52.678;13.314;2023-06-26T07:37:30;9.40;;;5.82;;
68803;SDS011;55787;52.678;13.314;2023-06-26T07:39:56;8.82;;;5.80;;
68803;SDS011;55787;52.678;13.314;2023-06-26T07:42:23;8.70;;;5.38;;
68803;SDS011;55787;52.678;13.314;2023-06-26T07:44:50;8.07;;;5.20;;
68803;SDS011;55787;52.678;13.314;2023-06-26T07:47:17;8.33;;;5.23;;
68803;SDS011;55787;52.678;13.314;2023-06-26T07:49:43;8.52;;;5.78;;
68803;SDS011;55787;52.678;13.314;2023-06-26T07:52:10;9.15;;;5.68;;
68803;SDS011;55787;52.678;13.314;2023-06-26T07:54:37;9.50;;;6.07;;
68803;SDS011;55787;52.678;13.314;2023-06-26T07:57:04;8.45;;;6.05;;
68803;SDS011;55787;52.678;13.314;2023-06-26T07:59:35;9.10;;;6.40;;
68803;SDS011;55787;52.678;13.314;2023-06-26T08:02:02;8.38;;;6.20;;
68803;SDS011;55787;52.678;13.314;2023-06-26T08:04:29;8.70;;;5.43;;
68803;SDS011;55787;52.678;13.314;2023-06-26T08:06:58;8.07;;;5.55;;
68803;SDS011;55787;52.678;13.314;2023-06-26T08:09:27;8.63;;;6.18;;
68803;SDS011;55787;52.678;13.314;2023-06-26T08:11:55;8.37;;;5.80;;
68803;SDS011;55787;52.678;13.314;2023-06-26T08:14:22;8.20;;;5.55;;
68803;SDS011;55787;52.678;13.314;2023-06-26T08:16:49;9.02;;;5.60;;
68803;SDS011;55787;52.678;13.314;2023-06-26T08:19:17;7.57;;;4.88;;
68803;SDS011;55787;52.678;13.314;2023-06-26T08:21:44;8.88;;;5.07;;
68803;SDS011;55787;52.678;13.314;2023-06-26T08:24:12;8.10;;;5.07;;
68803;SDS011;55787;52.678;13.314;2023-06-26T08:26:39;7.95;;;4.82;;
68803;SDS011;55787;52.678;13.314;2023-06-26T08:29:06;8.43;;;5.43;;
68803;SDS011;55787;52.678;13.314;2023-06-26T08:31:38;7.90;;;5.18;;
68803;SDS011;55787;52.678;13.314;2023-06-26T08:34:06;8.23;;;5.13;;
68803;SDS011;55787;52.678;13.314;2023-06-26T08:36:34;8.20;;;5.30;;
68803;SDS011;55787;52.678;13.314;2023-06-26T08:39:00;7.85;;;5.03;;
68803;SDS011;55787;52.678;13.314;2023-06-26T08:41:27;7.88;;;5.38;;
68803;SDS011;55787;52.678;13.314;2023-06-26T08:43:54;9.50;;;5.18;;
68803;SDS011;55787;52.678;13.314;2023-06-26T08:46:21;8.50;;;5.85;;
68803;SDS011;55787;52.678;13.314;2023-06-26T08:48:48;8.27;;;5.40;;
68803;SDS011;55787;52.678;13.314;2023-06-26T08:51:19;7.85;;;5.75;;
68803;SDS011;55787;52.678;13.314;2023-06-26T08:53:56;8.80;;;5.57;;
68803;SDS011;55787;52.678;13.314;2023-06-26T08:56:25;9.48;;;5.97;;
68803;SDS011;55787;52.678;13.314;2023-06-26T08:58:57;9.38;;;5.88;;
68803;SDS011;55787;52.678;13.314;2023-06-26T09:01:24;7.97;;;5.20;;
68803;SDS011;55787;52.678;13.314;2023-06-26T09:03:51;7.88;;;5.38;;
68803;SDS011;55787;52.678;13.314;2023-06-26T09:06:18;7.40;;;5.20;;
68803;SDS011;55787;52.678;13.314;2023-06-26T09:08:45;8.25;;;5.43;;
68803;SDS011;55787;52.678;13.314;2023-06-26T09:11:12;8.02;;;5.50;;
68803;SDS011;55787;52.678;13.314;2023-06-26T09:13:39;7.73;;;5.10;;
68803;SDS011;55787;52.678;13.314;2023-06-26T09:16:06;8.02;;;5.45;;
68803;SDS011;55787;52.678;13.314;2023-06-26T09:18:36;8.25;;;5.47;;
68803;SDS011;55787;52.678;13.314;2023-06-26T09:21:07;8.18;;;5.40;;
68803;SDS011;55787;52.678;13.314;2023-06-26T09:23:34;7.68;;;5.78;;
68803;SDS011;55787;52.678;13.314;2023-06-26T09:26:02;7.93;;;5.20;;
68803;SDS011;55787;52.678;13.314;2023-06-26T09:28:32;8.98;;;5.63;;
68803;SDS011;55787;52.678;13.314;2023-06-26T09:31:03;8.32;;;6.40;;
68803;SDS011;55787;52.678;13.314;2023-06-26T09:33:37;7.88;;;5.38;;
68803;SDS011;55787;52.678;13.314;2023-06-26T09:36:08;7.88;;;5.53;;
68803;SDS011;55787;52.678;13.314;2023-06-26T09:38:38;8.30;;;5.83;;
68803;SDS011;55787;52.678;13.314;2023-06-26T09:41:04;8.13;;;6.03;;
68803;SDS011;55787;52.678;13.314;2023-06-26T09:43:31;8.48;;;6.53;;
68803;SDS011;55787;52.678;13.314;2023-06-26T09:46:00;7.47;;;5.53;;
68803;SDS011;55787;52.678;13.314;2023-06-26T09:48:27;8.10;;;5.63;;
68803;SDS011;55787;52.678;13.314;2023-06-26T09:50:55;8.60;;;6.43;;
68803;SDS011;55787;52.678;13.314;2023-06-26T09:53:38;7.40;;;5.15;;
68803;SDS011;55787;52.678;13.314;2023-06-26T09:56:06;8.18;;;5.57;;
68803;SDS011;55787;52.678;13.314;2023-06-26T09:58:34;8.30;;;6.20;;
68803;SDS011;55787;52.678;13.314;2023-06-26T10:01:03;8.07;;;5.03;;
68803;SDS011;55787;52.678;13.314;2023-06-26T10:03:30;7.90;;;5.63;;
68803;SDS011;55787;52.678;13.314;2023-06-26T10:05:56;7.80;;;6.00;;
68803;SDS011;55787;52.678;13.314;2023-06-26T10:08:24;8.10;;;5.30;;
68803;SDS011;55787;52.678;13.314;2023-06-26T10:10:51;7.20;;;5.00;;
68803;SDS011;55787;52.678;13.314;2023-06-26T10:13:21;7.22;;;4.90;;
68803;SDS011;55787;52.678;13.314;2023-06-26T10:15:50;7.17;;;4.87;;
68803;SDS011;55787;52.678;13.314;2023-06-26T10:18:18;8.00;;;5.70;;
68803;SDS011;55787;52.678;13.314;2023-06-26T10:20:47;7.70;;;5.45;;
68803;SDS011;55787;52.678;13.314;2023-06-26T10:23:15;8.38;;;6.25;;
68803;SDS011;55787;52.678;13.314;2023-06-26T10:25:44;7.40;;;5.20;;
68803;SDS011;55787;52.678;13.314;2023-06-26T10:28:13;8.30;;;5.67;;
68803;SDS011;55787;52.678;13.314;2023-06-26T10:30:42;8.43;;;6.03;;
68803;SDS011;55787;52.678;13.314;2023-06-26T10:33:10;8.10;;;5.93;;
68803;SDS011;55787;52.678;13.314;2023-06-26T10:35:44;7.80;;;5.97;;
68803;SDS011;55787;52.678;13.314;2023-06-26T10:38:11;8.57;;;5.95;;
68803;SDS011;55787;52.678;13.314;2023-06-26T10:43:12;8.55;;;5.38;;
68803;SDS011;55787;52.678;13.314;2023-06-26T10:45:46;7.70;;;5.20;;
68803;SDS011;55787;52.678;13.314;2023-06-26T10:48:19;7.53;;;5.28;;
68803;SDS011;55787;52.678;13.314;2023-06-26T10:50:49;7.43;;;5.38;;
68803;SDS011;55787;52.678;13.314;2023-06-26T10:56:02;7.50;;;5.35;;
68803;SDS011;55787;52.678;13.314;2023-06-26T10:58:33;8.50;;;5.60;;
68803;SDS011;55787;52.678;13.314;2023-06-26T11:06:24;7.67;;;5.50;;
68803;SDS011;55787;52.678;13.314;2023-06-26T11:08:52;7.78;;;5.40;;
68803;SDS011;55787;52.678;13.314;2023-06-26T11:11:54;7.80;;;5.95;;
68803;SDS011;55787;52.678;13.314;2023-06-26T11:14:25;7.28;;;4.70;;
68803;SDS011;55787;52.678;13.314;2023-06-26T11:16:56;7.57;;;5.22;;
68803;SDS011;55787;52.678;13.314;2023-06-26T11:19:25;8.30;;;5.67;;
68803;SDS011;55787;52.678;13.314;2023-06-26T11:22:04;7.65;;;5.32;;
68803;SDS011;55787;52.678;13.314;2023-06-26T11:24:32;8.57;;;6.20;;
68803;SDS011;55787;52.678;13.314;2023-06-26T11:27:00;7.60;;;5.20;;
68803;SDS011;55787;52.678;13.314;2023-06-26T11:29:29;7.47;;;5.32;;
68803;SDS011;55787;52.678;13.314;2023-06-26T11:32:00;7.67;;;5.27;;
68803;SDS011;55787;52.678;13.314;2023-06-26T11:34:31;8.23;;;5.40;;
68803;SDS011;55787;52.678;13.314;2023-06-26T11:36:58;8.20;;;5.38;;
68803;SDS011;55787;52.678;13.314;2023-06-26T11:39:27;7.60;;;5.35;;
68803;SDS011;55787;52.678;13.314;2023-06-26T11:41:54;7.80;;;5.97;;
68803;SDS011;55787;52.678;13.314;2023-06-26T11:44:21;7.73;;;5.67;;
68803;SDS011;55787;52.678;13.314;2023-06-26T11:46:51;7.60;;;5.25;;
68803;SDS011;55787;52.678;13.314;2023-06-26T11:49:18;8.32;;;5.07;;
68803;SDS011;55787;52.678;13.314;2023-06-26T11:51:45;7.97;;;5.38;;
68803;SDS011;55787;52.678;13.314;2023-06-26T11:54:13;7.97;;;5.57;;
68803;SDS011;55787;52.678;13.314;2023-06-26T11:56:41;7.63;;;5.50;;
68803;SDS011;55787;52.678;13.314;2023-06-26T11:59:09;8.02;;;5.20;;
68803;SDS011;55787;52.678;13.314;2023-06-26T12:04:04;8.15;;;5.78;;
68803;SDS011;55787;52.678;13.314;2023-06-26T12:06:34;8.15;;;5.05;;
68803;SDS011;55787;52.678;13.314;2023-06-26T12:09:02;7.97;;;4.80;;
68803;SDS011;55787;52.678;13.314;2023-06-26T12:11:32;7.85;;;5.00;;
68803;SDS011;55787;52.678;13.314;2023-06-26T12:14:00;7.75;;;5.13;;
68803;SDS011;55787;52.678;13.314;2023-06-26T12:16:28;8.30;;;5.32;;
68803;SDS011;55787;52.678;13.314;2023-06-26T12:18:59;7.80;;;5.60;;
68803;SDS011;55787;52.678;13.314;2023-06-26T12:24:07;9.43;;;5.40;;
68803;SDS011;55787;52.678;13.314;2023-06-26T12:26:35;7.55;;;5.22;;
68803;SDS011;55787;52.678;13.314;2023-06-26T12:31:33;7.88;;;4.70;;
68803;SDS011;55787;52.678;13.314;2023-06-26T12:34:00;7.67;;;4.93;;
68803;SDS011;55787;52.678;13.314;2023-06-26T12:36:27;7.72;;;4.97;;
68803;SDS011;55787;52.678;13.314;2023-06-26T12:38:54;7.82;;;5.10;;
68803;SDS011;55787;52.678;13.314;2023-06-26T12:41:23;7.93;;;5.20;;
68803;SDS011;55787;52.678;13.314;2023-06-26T12:43:55;8.43;;;5.20;;
68803;SDS011;55787;52.678;13.314;2023-06-26T12:46:35;8.00;;;4.90;;
68803;SDS011;55787;52.678;13.314;2023-06-26T12:49:02;8.15;;;4.90;;
68803;SDS011;55787;52.678;13.314;2023-06-26T12:51:37;7.93;;;5.22;;
68803;SDS011;55787;52.678;13.314;2023-06-26T12:54:04;8.10;;;5.20;;
68803;SDS011;55787;52.678;13.314;2023-06-26T12:56:31;8.38;;;5.22;;
68803;SDS011;55787;52.678;13.314;2023-06-26T12:58:57;8.80;;;4.93;;
68803;SDS011;55787;52.678;13.314;2023-06-26T13:01:24;8.27;;;5.00;;
68803;SDS011;55787;52.678;13.314;2023-06-26T13:03:51;8.60;;;5.20;;
68803;SDS011;55787;52.678;13.314;2023-06-26T13:06:18;8.45;;;4.97;;
68803;SDS011;55787;52.678;13.314;2023-06-26T13:08:45;8.82;;;5.13;;
68803;SDS011;55787;52.678;13.314;2023-06-26T13:11:12;9.63;;;4.77;;
68803;SDS011;55787;52.678;13.314;2023-06-26T13:13:38;8.27;;;4.90;;
68803;SDS011;55787;52.678;13.314;2023-06-26T13:16:05;8.45;;;4.60;;
68803;SDS011;55787;52.678;13.314;2023-06-26T13:18:32;8.73;;;4.55;;
68803;SDS011;55787;52.678;13.314;2023-06-26T13:20:59;8.73;;;5.25;;
68803;SDS011;55787;52.678;13.314;2023-06-26T13:23:27;8.67;;;4.50;;
68803;SDS011;55787;52.678;13.314;2023-06-26T13:25:54;8.23;;;4.57;;
68803;SDS011;55787;52.678;13.314;2023-06-26T13:28:20;8.75;;;4.45;;
68803;SDS011;55787;52.678;13.314;2023-06-26T13:30:47;8.30;;;4.35;;
68803;SDS011;55787;52.678;13.314;2023-06-26T13:33:14;9.30;;;4.88;;
68803;SDS011;55787;52.678;13.314;2023-06-26T13:35:40;8.93;;;4.77;;
68803;SDS011;55787;52.678;13.314;2023-06-26T13:38:07;9.70;;;4.63;;
68803;SDS011;55787;52.678;13.314;2023-06-26T13:40:34;8.82;;;4.68;;
68803;SDS011;55787;52.678;13.314;2023-06-26T13:43:00;9.00;;;5.00;;
68803;SDS011;55787;52.678;13.314;2023-06-26T13:45:28;9.15;;;4.88;;
68803;SDS011;55787;52.678;13.314;2023-06-26T13:47:57;8.60;;;4.60;;
68803;SDS011;55787;52.678;13.314;2023-06-26T13:50:24;8.65;;;4.47;;
68803;SDS011;55787;52.678;13.314;2023-06-26T13:52:51;8.70;;;5.05;;
68803;SDS011;55787;52.678;13.314;2023-06-26T13:55:17;8.48;;;4.70;;
68803;SDS011;55787;52.678;13.314;2023-06-26T13:57:44;9.27;;;4.93;;
68803;SDS011;55787;52.678;13.314;2023-06-26T14:00:11;8.57;;;4.53;;
68803;SDS011;55787;52.678;13.314;2023-06-26T14:02:39;8.40;;;4.65;;
68803;SDS011;55787;52.678;13.314;2023-06-26T14:05:06;10.50;;;5.35;;
68803;SDS011;55787;52.678;13.314;2023-06-26T14:07:34;9.55;;;5.10;;
68803;SDS011;55787;52.678;13.314;2023-06-26T14:10:01;9.25;;;5.25;;
68803;SDS011;55787;52.678;13.314;2023-06-26T14:12:27;8.63;;;4.73;;
68803;SDS011;55787;52.678;13.314;2023-06-26T14:14:54;11.43;;;4.88;;
68803;SDS011;55787;52.678;13.314;2023-06-26T14:17:21;10.75;;;5.30;;
68803;SDS011;55787;52.678;13.314;2023-06-26T14:19:50;10.27;;;4.95;;
68803;SDS011;55787;52.678;13.314;2023-06-26T14:22:17;10.15;;;5.22;;
68803;SDS011;55787;52.678;13.314;2023-06-26T14:24:44;11.63;;;5.27;;
68803;SDS011;55787;52.678;13.314;2023-06-26T14:27:11;10.68;;;5.50;;
68803;SDS011;55787;52.678;13.314;2023-06-26T14:29:37;11.25;;;5.53;;
68803;SDS011;55787;52.678;13.314;2023-06-26T14:32:05;10.55;;;5.05;;
68803;SDS011;55787;52.678;13.314;2023-06-26T14:34:33;12.40;;;5.20;;
68803;SDS011;55787;52.678;13.314;2023-06-26T14:37:00;10.53;;;5.20;;
68803;SDS011;55787;52.678;13.314;2023-06-26T14:39:27;11.68;;;5.90;;
68803;SDS011;55787;52.678;13.314;2023-06-26T14:41:54;11.75;;;6.68;;
68803;SDS011;55787;52.678;13.314;2023-06-26T14:44:21;14.05;;;6.35;;
68803;SDS011;55787;52.678;13.314;2023-06-26T14:46:49;12.13;;;6.57;;
68803;SDS011;55787;52.678;13.314;2023-06-26T14:49:15;11.33;;;6.83;;